createdAt,value
2018-10-12T00:00:58.473Z,15.20
2018-10-12T00:03:33.876Z,16.55
2018-10-12T00:06:09.342Z,17.20
2018-10-12T00:08:44.731Z,16.10
2018-10-12T00:11:20.206Z,16.40
2018-10-12T00:13:55.719Z,16.05
2018-10-12T00:16:31.368Z,17.55
2018-10-12T00:19:07.001Z,17.87
2018-10-12T00:21:42.581Z,16.32
2018-10-12T00:24:18.014Z,17.15
2018-10-12T00:26:53.438Z,17.40
2018-10-12T00:29:28.986Z,17.17
2018-10-12T00:32:04.393Z,16.37
2018-10-12T00:34:39.774Z,17.60
2018-10-12T00:37:15.385Z,17.15
2018-10-12T00:39:50.585Z,16.20
2018-10-12T00:42:26.169Z,17.55
2018-10-12T00:45:01.641Z,17.60
2018-10-12T00:47:37.200Z,16.93
2018-10-12T00:50:12.602Z,16.97
2018-10-12T00:52:48.089Z,17.73
2018-10-12T00:55:25.154Z,17.37
2018-10-12T00:58:00.623Z,17.12
2018-10-12T01:00:36.136Z,16.77
2018-10-12T01:03:11.690Z,16.12
2018-10-12T01:05:46.973Z,17.60
2018-10-12T01:08:22.368Z,17.45
2018-10-12T01:10:57.877Z,16.85
2018-10-12T01:13:33.242Z,16.20
2018-10-12T01:16:08.540Z,17.35
2018-10-12T01:18:44.202Z,16.48
2018-10-12T01:21:19.518Z,17.25
2018-10-12T01:23:55.151Z,16.50
2018-10-12T01:26:30.455Z,17.40
2018-10-12T01:29:06.183Z,16.48
2018-10-12T01:31:41.764Z,16.37
2018-10-12T01:34:17.335Z,16.40
2018-10-12T01:36:52.762Z,17.20
2018-10-12T01:39:28.365Z,16.40
2018-10-12T01:42:04.017Z,16.48
2018-10-12T01:44:39.969Z,16.95
2018-10-12T01:47:15.281Z,16.55
2018-10-12T01:49:50.778Z,16.65
2018-10-12T01:52:26.308Z,17.20
2018-10-12T01:55:01.889Z,16.50
2018-10-12T01:57:37.413Z,17.10
2018-10-12T02:00:12.966Z,16.20
2018-10-12T02:02:48.510Z,16.80
2018-10-12T02:05:24.243Z,15.75
2018-10-12T02:07:59.494Z,15.93
2018-10-12T02:10:35.325Z,16.27
2018-10-12T02:13:10.587Z,16.93
2018-10-12T02:15:46.152Z,16.70
2018-10-12T02:18:21.652Z,15.70
2018-10-12T02:20:57.328Z,17.12
2018-10-12T02:23:32.648Z,16.42
2018-10-12T02:26:08.358Z,16.30
2018-10-12T02:28:44.100Z,16.00
2018-10-12T02:31:19.708Z,17.27
2018-10-12T02:33:55.253Z,17.23
2018-10-12T02:36:30.818Z,17.65
2018-10-12T02:39:10.565Z,16.82
2018-10-12T02:41:46.323Z,16.67
2018-10-12T02:44:21.838Z,17.07
2018-10-12T02:46:57.547Z,17.77
2018-10-12T02:49:32.984Z,16.95
2018-10-12T02:52:08.592Z,16.90
2018-10-12T02:54:44.144Z,17.45
2018-10-12T02:57:19.831Z,17.82
2018-10-12T02:59:55.273Z,16.55
2018-10-12T03:02:30.827Z,18.48
2018-10-12T03:05:07.029Z,18.92
2018-10-12T03:07:42.533Z,18.20
2018-10-12T03:10:17.841Z,18.05
2018-10-12T03:12:53.549Z,17.87
2018-10-12T03:15:29.172Z,18.32
2018-10-12T03:18:04.844Z,19.32
2018-10-12T03:20:40.017Z,19.05
2018-10-12T03:23:15.454Z,18.55
2018-10-12T03:25:50.860Z,18.12
2018-10-12T03:28:29.876Z,19.02
2018-10-12T03:31:05.715Z,18.52
2018-10-12T03:33:41.309Z,18.75
2018-10-12T03:36:16.761Z,18.23
2018-10-12T03:38:52.273Z,18.70
2018-10-12T03:41:27.725Z,19.00
2018-10-12T03:44:03.266Z,19.17
2018-10-12T03:46:38.800Z,19.35
2018-10-12T03:49:14.484Z,18.25
2018-10-12T03:51:49.776Z,19.20
2018-10-12T03:54:25.250Z,18.23
2018-10-12T03:57:00.686Z,18.12
2018-10-12T03:59:36.345Z,17.55
2018-10-12T04:02:11.947Z,17.48
2018-10-12T04:04:47.749Z,18.15
2018-10-12T04:07:23.202Z,17.73
2018-10-12T04:09:58.924Z,17.80
2018-10-12T04:12:34.517Z,16.50
2018-10-12T04:15:10.040Z,16.95
2018-10-12T04:17:45.387Z,18.12
2018-10-12T04:20:21.129Z,16.48
2018-10-12T04:22:56.749Z,16.30
2018-10-12T04:25:32.565Z,18.62
2018-10-12T04:28:07.996Z,17.15
2018-10-12T04:30:43.585Z,17.40
2018-10-12T04:33:19.398Z,17.35
2018-10-12T04:35:55.119Z,17.52
2018-10-12T04:38:47.148Z,17.02
2018-10-12T04:41:23.748Z,17.82
2018-10-12T04:44:00.571Z,17.05
2018-10-12T04:46:39.530Z,15.72
2018-10-12T04:49:16.695Z,18.48
2018-10-12T04:51:54.429Z,16.90
2018-10-12T04:54:29.996Z,17.92
2018-10-12T04:57:05.383Z,17.67
2018-10-12T04:59:40.897Z,16.97
2018-10-12T05:02:16.433Z,17.55
2018-10-12T05:04:51.989Z,18.70
2018-10-12T05:07:27.528Z,18.00
2018-10-12T05:10:02.873Z,18.70
2018-10-12T05:12:38.468Z,17.62
2018-10-12T05:15:13.658Z,18.00
2018-10-12T05:17:49.056Z,17.00
2018-10-12T05:20:24.412Z,17.07
2018-10-12T05:22:59.886Z,18.95
2018-10-12T05:25:35.252Z,17.70
2018-10-12T05:28:11.072Z,16.95
2018-10-12T05:30:46.577Z,18.17
2018-10-12T05:33:22.137Z,19.70
2018-10-12T05:35:57.676Z,18.25
2018-10-12T05:38:33.665Z,21.52
2018-10-12T05:41:09.093Z,18.95
2018-10-12T05:43:44.526Z,18.82
2018-10-12T05:46:19.897Z,18.15
2018-10-12T05:49:12.329Z,18.30
2018-10-12T05:51:47.734Z,18.05
2018-10-12T05:54:23.222Z,20.27
2018-10-12T05:56:58.637Z,17.32
2018-10-12T05:59:34.419Z,18.17
2018-10-12T06:02:10.002Z,18.32
2018-10-12T06:04:45.744Z,17.85
2018-10-12T06:07:21.186Z,18.77
2018-10-12T06:09:56.881Z,17.85
2018-10-12T06:12:32.053Z,17.12
2018-10-12T06:15:07.729Z,18.15
2018-10-12T06:17:43.044Z,17.73
2018-10-12T06:20:18.575Z,16.87
2018-10-12T06:22:54.123Z,16.42
2018-10-12T06:25:29.681Z,17.12
2018-10-12T06:28:05.229Z,17.27
2018-10-12T06:30:40.670Z,17.05
2018-10-12T06:33:15.995Z,17.27
2018-10-12T06:35:51.448Z,18.32
2018-10-12T06:41:02.022Z,16.00
2018-10-12T06:43:37.219Z,15.85
2018-10-12T06:48:47.174Z,16.00
2018-10-12T06:51:22.632Z,16.53
2018-10-12T06:53:58.210Z,16.25
2018-10-12T06:56:33.795Z,17.00
2018-10-12T07:04:19.031Z,15.40
2018-10-12T07:06:54.441Z,14.83
2018-10-12T07:09:29.817Z,15.47
2018-10-12T07:12:05.292Z,15.50
2018-10-12T07:14:41.539Z,16.10
2018-10-12T07:17:16.961Z,15.75
2018-10-12T07:19:52.341Z,15.55
2018-10-12T07:22:27.817Z,16.32
2018-10-12T07:25:03.024Z,16.85
2018-10-12T07:27:38.725Z,16.85
2018-10-12T07:30:14.284Z,16.85
2018-10-12T07:32:50.140Z,17.60
2018-10-12T07:35:25.667Z,17.70
2018-10-12T07:38:01.078Z,18.50
2018-10-12T07:40:36.565Z,18.45
2018-10-12T07:43:12.105Z,19.87
2018-10-12T07:45:47.574Z,19.12
2018-10-12T07:48:23.168Z,20.17
2018-10-12T07:50:58.778Z,18.42
2018-10-12T07:53:34.196Z,19.27
2018-10-12T07:56:09.585Z,14.93
2018-10-12T07:58:45.173Z,15.63
2018-10-12T08:01:20.373Z,16.50
2018-10-12T08:03:56.002Z,16.05
2018-10-12T08:06:31.478Z,16.87
2018-10-12T08:09:09.964Z,16.10
2018-10-12T08:11:45.285Z,15.93
2018-10-12T08:14:20.873Z,17.85
2018-10-12T08:16:56.274Z,15.80
2018-10-12T08:19:32.329Z,16.00
2018-10-12T08:22:07.777Z,17.48
2018-10-12T08:24:43.318Z,17.30
2018-10-12T08:27:18.809Z,17.45
2018-10-12T08:29:54.378Z,17.48
2018-10-12T08:32:29.869Z,17.55
2018-10-12T08:35:05.363Z,25.17
2018-10-12T08:37:40.802Z,15.80
2018-10-12T08:40:16.337Z,14.95
2018-10-12T08:42:51.834Z,14.75
2018-10-12T08:45:27.525Z,30.20
2018-10-12T08:48:03.090Z,24.27
2018-10-12T08:50:38.553Z,21.48
2018-10-12T08:53:14.089Z,18.23
2018-10-12T08:55:49.548Z,16.07
2018-10-12T08:58:24.985Z,14.98
2018-10-12T09:01:00.637Z,15.25
2018-10-12T09:03:36.134Z,30.73
2018-10-12T09:06:11.689Z,17.63
2018-10-12T09:08:47.128Z,15.13
2018-10-12T09:11:23.108Z,20.97
2018-10-12T09:13:58.500Z,17.60
2018-10-12T09:16:33.948Z,14.90
2018-10-12T09:19:09.457Z,12.77
2018-10-12T09:21:45.435Z,11.20
2018-10-12T09:24:20.768Z,10.50
2018-10-12T09:26:56.207Z,10.83
2018-10-12T09:29:31.657Z,10.30
2018-10-12T09:32:07.683Z,9.60
2018-10-12T09:34:42.947Z,10.07
2018-10-12T09:37:18.452Z,10.80
2018-10-12T09:39:53.896Z,9.60
2018-10-12T09:42:29.342Z,8.50
2018-10-12T09:45:04.771Z,8.60
2018-10-12T09:47:40.456Z,8.63
2018-10-12T09:50:15.755Z,8.37
2018-10-12T09:52:51.153Z,8.87
2018-10-12T09:55:26.509Z,8.20
2018-10-12T09:58:01.923Z,8.50
2018-10-12T10:00:42.525Z,8.33
2018-10-12T10:03:23.333Z,8.00
2018-10-12T10:05:58.697Z,8.00
2018-10-12T10:08:34.516Z,7.97
2018-10-12T10:11:09.649Z,7.67
2018-10-12T10:13:44.981Z,7.00
2018-10-12T10:16:20.284Z,6.40
2018-10-12T10:18:55.957Z,6.70
2018-10-12T10:21:31.425Z,6.73
2018-10-12T10:24:07.062Z,6.90
2018-10-12T10:26:42.637Z,6.27
2018-10-12T10:29:18.209Z,7.40
2018-10-12T10:31:53.898Z,6.33
2018-10-12T10:34:29.049Z,7.20
2018-10-12T10:37:04.564Z,7.60
2018-10-12T10:39:39.955Z,7.27
2018-10-12T10:42:15.294Z,7.53
2018-10-12T10:44:50.793Z,7.27
2018-10-12T10:47:26.174Z,6.63
2018-10-12T10:50:01.580Z,7.50
2018-10-12T10:52:36.996Z,8.30
2018-10-12T10:55:12.455Z,6.77
2018-10-12T10:57:47.981Z,7.43
2018-10-12T11:00:23.596Z,6.43
2018-10-12T11:02:59.057Z,7.27
2018-10-12T11:05:34.653Z,6.40
2018-10-12T11:08:09.997Z,6.40
2018-10-12T11:10:45.437Z,7.50
2018-10-12T11:13:20.963Z,8.10
2018-10-12T11:15:56.401Z,6.73
2018-10-12T11:18:31.943Z,5.83
2018-10-12T11:21:08.102Z,6.90
2018-10-12T11:23:43.565Z,5.60
2018-10-12T11:26:19.120Z,7.20
2018-10-12T11:28:54.550Z,6.20
2018-10-12T11:31:30.189Z,6.97
2018-10-12T11:34:05.916Z,5.93
2018-10-12T11:36:41.489Z,5.60
2018-10-12T11:39:16.893Z,6.33
2018-10-12T11:41:52.269Z,6.57
2018-10-12T11:44:27.802Z,6.43
2018-10-12T11:47:03.248Z,5.10
2018-10-12T11:49:38.567Z,5.37
2018-10-12T11:52:14.043Z,5.20
2018-10-12T11:54:49.389Z,4.90
2018-10-12T11:57:24.945Z,5.20
2018-10-12T12:00:00.258Z,4.40
2018-10-12T12:02:35.924Z,4.90
2018-10-12T12:05:11.276Z,5.10
2018-10-12T12:07:46.862Z,4.77
2018-10-12T12:10:22.441Z,5.30
2018-10-12T12:12:58.070Z,11.30
2018-10-12T12:15:33.385Z,5.73
2018-10-12T12:18:08.908Z,5.70
2018-10-12T12:20:44.252Z,4.50
2018-10-12T12:23:19.833Z,4.80
2018-10-12T12:25:55.323Z,4.50
2018-10-12T12:28:31.061Z,5.70
2018-10-12T12:31:06.534Z,7.30
2018-10-12T12:33:42.053Z,47.60
2018-10-12T12:36:17.391Z,6.20
2018-10-12T12:38:52.869Z,5.10
2018-10-12T12:41:28.307Z,4.83
2018-10-12T12:44:03.836Z,4.10
2018-10-12T12:46:39.313Z,4.27
2018-10-12T12:49:15.360Z,4.47
2018-10-12T12:51:50.402Z,3.40
2018-10-12T12:54:26.545Z,4.90
2018-10-12T12:57:01.975Z,4.30
2018-10-12T12:59:37.470Z,3.77
2018-10-12T13:02:12.727Z,6.20
2018-10-12T13:04:48.170Z,4.07
2018-10-12T13:07:23.677Z,3.90
2018-10-12T13:09:59.543Z,4.73
2018-10-12T13:12:34.854Z,4.00
2018-10-12T13:15:10.321Z,7.90
2018-10-12T13:17:45.613Z,4.50
2018-10-12T13:20:21.127Z,6.13
2018-10-12T13:22:56.281Z,4.87
2018-10-12T13:25:31.775Z,5.43
2018-10-12T13:28:07.273Z,4.50
2018-10-12T13:30:43.099Z,4.40
2018-10-12T13:33:18.535Z,6.53
2018-10-12T13:35:53.929Z,4.87
2018-10-12T13:38:29.400Z,5.10
2018-10-12T13:41:04.849Z,5.33
2018-10-12T13:43:40.273Z,6.93
2018-10-12T13:46:15.681Z,4.50
2018-10-12T13:48:51.128Z,4.87
2018-10-12T13:51:26.686Z,3.63
2018-10-12T13:54:01.998Z,7.90
2018-10-12T13:56:37.429Z,7.50
2018-10-12T13:59:12.852Z,5.37
2018-10-12T14:01:48.409Z,5.17
2018-10-12T14:04:24.014Z,4.83
2018-10-12T14:06:59.553Z,5.30
2018-10-12T14:09:35.084Z,4.80
2018-10-12T14:12:10.788Z,5.40
2018-10-12T14:14:45.994Z,3.70
2018-10-12T14:17:21.393Z,3.90
2018-10-12T14:19:56.933Z,4.10
2018-10-12T14:22:32.613Z,5.83
2018-10-12T14:25:08.363Z,4.20
2018-10-12T14:27:43.805Z,3.50
2018-10-12T14:30:19.391Z,3.50
2018-10-12T14:32:55.107Z,3.80
2018-10-12T14:35:30.533Z,4.10
2018-10-12T14:38:05.987Z,3.70
2018-10-12T14:40:41.424Z,5.27
2018-10-12T14:43:17.077Z,3.77
2018-10-12T14:45:52.518Z,4.70
2018-10-12T14:48:28.053Z,4.90
2018-10-12T14:51:03.545Z,6.57
2018-10-12T14:53:39.036Z,9.37
2018-10-12T14:56:14.850Z,5.60
2018-10-12T14:58:50.346Z,3.60
2018-10-12T15:01:25.732Z,3.67
2018-10-12T15:04:01.189Z,3.83
2018-10-12T15:06:36.480Z,3.90
2018-10-12T15:09:13.691Z,3.60
2018-10-12T15:11:49.159Z,5.30
2018-10-12T15:14:44.656Z,7.40
2018-10-12T15:17:19.953Z,4.20
2018-10-12T15:19:55.371Z,7.20
2018-10-12T15:22:30.857Z,3.90
2018-10-12T15:25:06.417Z,3.73
2018-10-12T15:27:42.047Z,3.50
2018-10-12T15:30:18.113Z,3.67
2018-10-12T15:32:53.630Z,3.83
2018-10-12T15:35:29.436Z,3.57
2018-10-12T15:38:04.889Z,3.73
2018-10-12T15:40:40.718Z,5.33
2018-10-12T15:43:16.254Z,4.60
2018-10-12T15:45:51.837Z,4.87
2018-10-12T15:48:27.206Z,4.10
2018-10-12T15:51:02.702Z,4.40
2018-10-12T15:53:38.046Z,4.43
2018-10-12T15:56:13.652Z,4.60
2018-10-12T15:58:49.102Z,4.10
2018-10-12T16:01:24.507Z,6.00
2018-10-12T16:03:59.977Z,5.70
2018-10-12T16:06:35.385Z,4.47
2018-10-12T16:09:10.873Z,4.57
2018-10-12T16:11:46.255Z,3.83
2018-10-12T16:14:21.725Z,3.93
2018-10-12T16:16:57.147Z,3.90
2018-10-12T16:19:32.602Z,4.37
2018-10-12T16:22:08.579Z,4.23
2018-10-12T16:25:00.536Z,3.70
2018-10-12T16:27:35.908Z,4.90
2018-10-12T16:30:11.463Z,3.80
2018-10-12T16:32:46.881Z,4.70
2018-10-12T16:35:22.303Z,4.70
2018-10-12T16:37:57.898Z,5.50
2018-10-12T16:40:33.329Z,4.47
2018-10-12T16:43:08.835Z,6.10
2018-10-12T16:45:44.458Z,6.93
2018-10-12T16:48:19.841Z,6.63
2018-10-12T16:50:55.207Z,6.70
2018-10-12T16:53:31.001Z,6.20
2018-10-12T16:56:06.569Z,6.63
2018-10-12T16:58:41.970Z,6.27
2018-10-12T17:01:17.413Z,6.37
2018-10-12T17:03:52.841Z,6.80
2018-10-12T17:06:28.305Z,6.80
2018-10-12T17:09:03.885Z,7.17
2018-10-12T17:11:39.255Z,7.63
2018-10-12T17:14:14.802Z,7.20
2018-10-12T17:16:50.168Z,7.10
2018-10-12T17:19:25.699Z,6.60
2018-10-12T17:22:01.245Z,7.70
2018-10-12T17:24:36.864Z,7.33
2018-10-12T17:27:12.420Z,8.63
2018-10-12T17:29:48.066Z,7.80
2018-10-12T17:32:23.480Z,8.50
2018-10-12T17:34:59.080Z,8.87
2018-10-12T17:37:34.391Z,8.57
2018-10-12T17:40:10.564Z,9.03
2018-10-12T17:42:45.910Z,9.77
2018-10-12T17:45:21.416Z,9.43
2018-10-12T17:47:56.894Z,10.20
2018-10-12T17:50:32.473Z,10.20
2018-10-12T17:53:07.948Z,11.67
2018-10-12T17:55:43.769Z,11.27
2018-10-12T17:58:19.338Z,10.53
2018-10-12T18:00:54.918Z,10.63
2018-10-12T18:03:30.433Z,10.20
2018-10-12T18:06:05.905Z,10.70
2018-10-12T18:08:41.312Z,12.43
2018-10-12T18:11:17.165Z,10.20
2018-10-12T18:13:55.385Z,10.60
2018-10-12T18:16:31.048Z,11.20
2018-10-12T18:19:07.045Z,13.43
2018-10-12T18:21:42.700Z,9.60
2018-10-12T18:24:18.433Z,10.73
2018-10-12T18:26:53.897Z,9.87
2018-10-12T18:29:29.518Z,9.50
2018-10-12T18:32:04.989Z,9.70
2018-10-12T18:34:40.489Z,8.57
2018-10-12T18:37:16.004Z,10.07
2018-10-12T18:39:51.430Z,9.77
2018-10-12T18:42:27.143Z,10.70
2018-10-12T18:45:02.785Z,10.13
2018-10-12T18:47:38.851Z,9.83
2018-10-12T18:50:14.376Z,8.80
2018-10-12T18:52:50.199Z,8.63
2018-10-12T18:55:25.955Z,9.13
2018-10-12T18:58:01.552Z,12.60
2018-10-12T19:00:37.040Z,17.00
2018-10-12T19:03:12.547Z,9.60
2018-10-12T19:05:48.053Z,10.17
2018-10-12T19:08:23.552Z,10.20
2018-10-12T19:10:58.937Z,8.70
2018-10-12T19:13:34.630Z,8.50
2018-10-12T19:16:09.993Z,8.93
2018-10-12T19:18:45.649Z,9.70
2018-10-12T19:21:21.183Z,35.93
2018-10-12T19:23:56.817Z,10.40
2018-10-12T19:26:32.052Z,17.73
2018-10-12T19:29:08.198Z,10.10
2018-10-12T19:31:43.684Z,8.47
2018-10-12T19:34:19.099Z,7.87
2018-10-12T19:36:54.514Z,7.80
2018-10-12T19:39:30.026Z,8.60
2018-10-12T19:42:05.541Z,9.37
2018-10-12T19:44:41.008Z,8.53
2018-10-12T19:47:16.357Z,8.10
2018-10-12T19:49:52.105Z,9.73
2018-10-12T19:52:27.554Z,8.60
2018-10-12T19:55:03.169Z,20.20
2018-10-12T19:57:38.545Z,9.43
2018-10-12T20:00:14.127Z,17.77
2018-10-12T20:02:49.589Z,14.53
2018-10-12T20:05:25.233Z,8.73
2018-10-12T20:08:00.818Z,8.40
2018-10-12T20:10:36.476Z,13.95
2018-10-12T20:13:11.821Z,17.17
2018-10-12T20:15:47.382Z,8.98
2018-10-12T20:18:22.885Z,13.58
2018-10-12T20:20:58.393Z,8.95
2018-10-12T20:23:33.804Z,9.50
2018-10-12T20:26:09.414Z,11.22
2018-10-12T20:28:45.037Z,8.93
2018-10-12T20:31:20.845Z,8.65
2018-10-12T20:33:56.193Z,14.50
2018-10-12T20:36:31.821Z,20.23
2018-10-12T20:39:09.501Z,13.43
2018-10-12T20:41:44.999Z,13.88
2018-10-12T20:44:20.356Z,10.10
2018-10-12T20:46:56.182Z,28.75
2018-10-12T20:49:31.537Z,11.30
2018-10-12T20:52:07.252Z,8.90
2018-10-12T20:54:42.653Z,12.00
2018-10-12T20:57:18.379Z,12.58
2018-10-12T20:59:54.074Z,11.50
2018-10-12T21:02:29.875Z,20.77
2018-10-12T21:05:05.490Z,12.40
2018-10-12T21:07:41.549Z,13.03
2018-10-12T21:10:17.041Z,10.05
2018-10-12T21:12:52.643Z,10.58
2018-10-12T21:15:28.020Z,9.48
2018-10-12T21:18:03.776Z,34.90
2018-10-12T21:20:39.092Z,9.45
2018-10-12T21:23:14.585Z,29.25
2018-10-12T21:25:49.930Z,11.33
2018-10-12T21:28:25.620Z,8.30
2018-10-12T21:31:01.201Z,10.35
2018-10-12T21:33:36.710Z,30.08
2018-10-12T21:36:12.455Z,13.45
2018-10-12T21:38:47.917Z,11.05
2018-10-12T21:41:23.311Z,9.83
2018-10-12T21:43:58.909Z,29.77
2018-10-12T21:46:34.461Z,12.63
2018-10-12T21:49:10.090Z,9.13
2018-10-12T21:51:45.409Z,8.53
2018-10-12T21:54:20.996Z,21.37
2018-10-12T21:56:56.569Z,10.13
2018-10-12T21:59:32.141Z,8.38
2018-10-12T22:02:07.377Z,12.35
2018-10-12T22:04:43.289Z,28.60
2018-10-12T22:07:18.774Z,12.23
2018-10-12T22:09:54.320Z,17.27
2018-10-12T22:12:29.770Z,10.35
2018-10-12T22:15:05.280Z,12.07
2018-10-12T22:17:40.765Z,10.88
2018-10-12T22:20:16.906Z,23.90
2018-10-12T22:22:52.367Z,8.13
2018-10-12T22:25:27.873Z,17.10
2018-10-12T22:28:03.192Z,16.93
2018-10-12T22:30:39.070Z,22.52
2018-10-12T22:33:14.445Z,12.05
2018-10-12T22:35:50.165Z,12.25
2018-10-12T22:38:25.594Z,9.13
2018-10-12T22:41:01.064Z,10.78
2018-10-12T22:43:36.517Z,16.35
2018-10-12T22:46:12.054Z,17.75
2018-10-12T22:48:54.176Z,25.25
2018-10-12T22:51:29.901Z,19.20
2018-10-12T22:54:05.381Z,11.63
2018-10-12T22:56:40.897Z,19.80
2018-10-12T22:59:16.188Z,16.90
2018-10-12T23:01:51.900Z,30.20
2018-10-12T23:04:27.453Z,24.23
2018-10-12T23:07:03.173Z,23.12
2018-10-12T23:09:38.713Z,26.50
2018-10-12T23:12:14.386Z,16.67
2018-10-12T23:14:49.681Z,16.25
2018-10-12T23:17:25.284Z,31.73
2018-10-12T23:20:00.654Z,16.75
2018-10-12T23:22:36.372Z,25.77
2018-10-12T23:25:11.992Z,18.00
2018-10-12T23:27:47.782Z,22.98
2018-10-12T23:30:23.541Z,36.80
2018-10-12T23:33:16.213Z,21.27
2018-10-12T23:35:51.695Z,18.23
2018-10-12T23:38:27.270Z,16.70
2018-10-12T23:41:02.743Z,25.52
2018-10-12T23:43:38.157Z,17.40
2018-10-12T23:46:13.490Z,16.45
2018-10-12T23:48:49.053Z,12.35
2018-10-12T23:51:24.885Z,10.40
2018-10-12T23:54:00.669Z,10.85
2018-10-12T23:56:36.126Z,12.80
2018-10-12T23:59:11.720Z,16.17
